Time;durP1;ratioP1;P1;durP2;ratioP2;P2;SDS_P1;SDS_P2;PMS_P1;PMS_P2;Temp;Humidity;BMP_temperature;BMP_pressure;BME280_temperature;BME280_humidity;BME280_pressure;Samples;Min_cycle;Max_cycle;Signal;HPM_P1;HPM_P2
2022/04/26 03:40:35;;;;;;;3.28;2.15;;;;;;;22.95;46.11;100009.28;20353729;28;96951;-79
2022/04/26 03:50:35;;;;;;;3.03;1.90;;;;;;;22.91;46.05;100018.47;20363074;28;97998;-79
2022/04/26 04:00:36;;;;;;;2.15;1.90;;;;;;;22.91;46.00;100026.38;20360295;28;99660;-79
2022/04/26 04:10:37;;;;;;;2.97;1.90;;;;;;;22.91;45.93;100040.44;20355612;28;99291;-79
2022/04/26 04:20:37;;;;;;;2.47;1.63;;;;;;;22.95;46.33;100051.53;20362070;28;97036;-80
2022/04/26 04:30:38;;;;;;;6.90;1.80;;;;;;;23.02;47.71;100057.94;20367535;28;97830;-80
2022/04/26 04:40:38;;;;;;;3.10;1.67;;;;;;;23.03;47.64;100078.94;20377343;28;97492;-79
2022/04/26 04:50:39;;;;;;;5.50;2.00;;;;;;;23.11;47.32;100082.69;20367473;28;97876;-81
2022/04/26 05:00:39;;;;;;;7.07;2.35;;;;;;;23.05;47.80;100088.53;20351903;28;98562;-78
2022/04/26 05:10:40;;;;;;;24.35;5.80;;;;;;;23.07;46.77;100097.97;20427304;28;97404;-79
2022/04/26 05:20:41;;;;;;;19.92;5.05;;;;;;;22.96;44.22;100111.28;20428487;28;97643;-77
2022/04/26 05:30:41;;;;;;;29.40;6.05;;;;;;;23.00;45.06;100121.44;20418864;28;97077;-76
2022/04/26 05:40:43;;;;;;;24.50;6.72;;;;;;;23.02;44.95;100132.72;20436343;28;97019;-75
2022/04/26 05:50:43;;;;;;;29.42;6.00;;;;;;;23.02;45.15;100129.22;20454805;28;100353;-78
2022/04/26 06:00:44;;;;;;;32.53;6.80;;;;;;;22.96;44.96;100135.06;20457103;28;97700;-77
2022/04/26 06:10:44;;;;;;;23.55;5.55;;;;;;;22.97;45.37;100136.72;20459440;28;97043;-75
2022/04/26 06:20:45;;;;;;;19.45;4.95;;;;;;;22.97;45.60;100134.94;20458736;28;97392;-75
2022/04/26 06:30:45;;;;;;;15.60;4.45;;;;;;;22.98;46.18;100130.47;20456730;28;97386;-76
2022/04/26 06:40:46;;;;;;;18.92;5.05;;;;;;;23.02;46.22;100137.16;20460461;28;97987;-75
2022/04/26 06:50:47;;;;;;;16.75;4.93;;;;;;;23.01;46.15;100131.03;20461883;28;99382;-76
2022/04/26 07:00:48;;;;;;;14.32;4.30;;;;;;;23.08;46.36;100133.13;20448174;28;97903;-75
2022/04/26 07:10:49;;;;;;;17.57;5.23;;;;;;;23.11;46.02;100140.78;20456758;28;97203;-76
2022/04/26 07:20:49;;;;;;;13.85;4.53;;;;;;;23.12;45.98;100148.56;20444928;28;98694;-75
2022/04/26 07:30:50;;;;;;;10.68;4.20;;;;;;;23.10;46.09;100158.44;20458348;28;96958;-76
2022/04/26 07:40:50;;;;;;;11.73;4.30;;;;;;;23.09;46.41;100159.41;20444197;28;100948;-77
2022/04/26 07:50:51;;;;;;;11.98;4.38;;;;;;;23.12;46.28;100174.97;20454153;28;98466;-77
2022/04/26 08:00:51;;;;;;;9.35;3.90;;;;;;;23.09;46.35;100169.13;20453570;28;97904;-76
2022/04/26 08:10:52;;;;;;;10.35;4.70;;;;;;;23.14;46.49;100174.84;20458524;28;97096;-77
2022/04/26 08:20:52;;;;;;;7.40;3.63;;;;;;;23.15;46.34;100174.69;20454770;28;100373;-77
2022/04/26 08:30:53;;;;;;;11.35;5.00;;;;;;;23.15;46.65;100182.63;20443709;28;97924;-73
2022/04/26 08:40:53;;;;;;;12.15;5.20;;;;;;;23.17;46.29;100185.19;20445022;28;97819;-74
2022/04/26 08:51:02;;;;;;;9.32;4.70;;;;;;;23.25;46.19;100182.66;20454447;28;97228;-73
2022/04/26 09:01:08;;;;;;;8.80;4.60;;;;;;;23.30;46.49;100187.53;20449996;28;97692;-74
2022/04/26 09:11:21;;;;;;;11.70;4.65;;;;;;;23.37;46.18;100187.84;20454468;28;96969;-73
2022/04/26 09:21:26;;;;;;;6.60;4.22;;;;;;;23.43;45.94;100180.16;20452086;28;100391;-73
2022/04/26 09:31:29;;;;;;;9.05;5.47;;;;;;;23.51;45.95;100182.13;20451136;28;97606;-72
2022/04/26 09:41:30;;;;;;;7.68;4.68;;;;;;;23.58;45.73;100179.75;20448838;28;97584;-73
2022/04/26 09:51:31;;;;;;;7.28;4.78;;;;;;;23.66;45.74;100172.78;20444179;28;99389;-73
2022/04/26 10:01:41;;;;;;;7.47;5.55;;;;;;;23.73;45.72;100170.44;20446181;28;97813;-72
2022/04/26 10:11:42;;;;;;;7.20;4.90;;;;;;;23.81;45.50;100156.50;20449527;28;97979;-73
2022/04/26 10:21:45;;;;;;;9.20;5.43;;;;;;;23.87;45.60;100155.94;20439643;28;97764;-75
2022/04/26 10:31:49;;;;;;;8.32;4.97;;;;;;;23.95;45.97;100150.81;20442273;28;97074;-75
2022/04/26 10:41:51;;;;;;;8.25;5.53;;;;;;;24.05;45.63;100149.97;20483510;28;97919;-75
2022/04/26 10:51:52;;;;;;;8.60;5.37;;;;;;;24.11;45.43;100139.63;20456561;28;97730;-76
2022/04/26 11:01:54;;;;;;;8.37;5.67;;;;;;;24.19;45.31;100138.06;20467465;28;98563;-77
2022/04/26 11:11:55;;;;;;;8.18;5.65;;;;;;;24.26;45.30;100139.97;20482808;28;97182;-76
2022/04/26 11:21:57;;;;;;;8.02;5.70;;;;;;;24.35;45.34;100133.00;20460972;28;97407;-76
2022/04/26 11:31:57;;;;;;;7.53;6.17;;;;;;;24.43;45.13;100138.38;20483564;28;98198;-75
2022/04/26 11:41:58;;;;;;;8.13;6.03;;;;;;;24.52;44.90;100126.06;20467922;28;97748;-76
2022/04/26 11:52:00;;;;;;;9.33;6.77;;;;;;;24.61;44.76;100116.44;20464705;28;97975;-76
2022/04/26 12:02:00;;;;;;;9.18;7.20;;;;;;;24.70;44.86;100112.91;20474430;28;97152;-76
2022/04/26 12:12:03;;;;;;;8.68;7.07;;;;;;;24.66;43.59;100116.84;20468046;28;97066;-75
2022/04/26 12:22:05;;;;;;;8.82;5.90;;;;;;;24.70;42.47;100099.66;20459120;28;97257;-75
2022/04/26 12:32:08;;;;;;;9.93;5.30;;;;;;;24.80;42.00;100096.13;20445820;28;101415;-76
2022/04/26 12:42:29;;;;;;;6.68;4.95;;;;;;;24.82;40.83;100084.41;20453564;28;98226;-77
2022/04/26 12:52:33;;;;;;;7.73;3.67;;;;;;;24.93;39.40;100084.19;20437664;28;97812;-74
2022/04/26 13:02:33;;;;;;;86.38;45.65;;;;;;;25.04;40.16;100082.31;20409756;28;97680;-77
2022/04/26 13:12:34;;;;;;;167.43;77.03;;;;;;;25.12;40.28;100070.94;20447066;28;97768;-74
2022/04/26 13:22:35;;;;;;;140.95;65.40;;;;;;;25.21;40.47;100070.84;20411546;28;97702;-75
2022/04/26 13:32:36;;;;;;;;;;;;;;;25.25;40.26;100071.38;20435104;28;97317;-75
2022/04/26 13:42:37;;;;;;;96.00;45.17;;;;;;;25.16;40.24;100070.47;20435687;28;97240;-76
2022/04/26 13:52:38;;;;;;;78.15;37.88;;;;;;;25.09;40.55;100059.66;20434429;28;97527;-75
2022/04/26 14:02:44;;;;;;;65.97;31.30;;;;;;;24.98;40.37;100073.13;20463849;28;97339;-74
2022/04/26 14:12:45;;;;;;;46.45;22.45;;;;;;;24.89;39.28;100059.00;20467868;28;97132;-76
2022/04/26 14:22:46;;;;;;;41.20;19.80;;;;;;;24.81;37.87;100061.56;20448280;28;97000;-73
2022/04/26 14:32:48;;;;;;;36.27;17.37;;;;;;;24.78;37.13;100065.34;20442658;28;98015;-74
2022/04/26 14:42:50;;;;;;;31.95;13.10;;;;;;;24.76;34.98;100055.88;20432730;28;97193;-75
2022/04/26 14:52:52;;;;;;;;;;;;;;;24.77;36.50;100057.56;20446410;28;97781;-75
2022/04/26 15:02:52;;;;;;;21.00;9.02;;;;;;;24.73;37.44;100057.03;20439875;28;97331;-76
2022/04/26 15:23:12;;;;;;;12.70;6.70;;;;;;;24.76;37.63;100055.88;20432963;28;97132;-75
2022/04/26 15:33:13;;;;;;;9.25;5.05;;;;;;;24.78;36.23;100044.16;20444330;28;100472;-76
2022/04/26 15:43:15;;;;;;;11.67;6.00;;;;;;;24.85;36.52;100046.19;20444609;28;97632;-76
2022/04/26 15:53:16;;;;;;;9.32;5.97;;;;;;;24.83;35.90;100035.75;20439974;28;97795;-77
2022/04/26 16:03:17;;;;;;;13.38;5.70;;;;;;;24.80;35.38;100038.69;20412007;28;102148;-72
2022/04/26 16:23:36;;;;;;;39.63;16.65;;;;;;;24.73;35.39;100030.53;20416759;28;98076;-74
2022/04/26 16:33:37;;;;;;;27.83;11.32;;;;;;;24.76;35.40;100034.69;20406587;28;101034;-75
2022/04/26 16:43:39;;;;;;;28.30;8.05;;;;;;;24.64;34.74;100042.00;20404762;28;100090;-74
2022/04/26 16:53:39;;;;;;;30.05;13.07;;;;;;;24.62;33.93;100042.16;20386599;28;98695;-75
2022/04/26 17:03:39;;;;;;;28.85;13.02;;;;;;;24.62;36.30;100049.28;20415860;28;97423;-76
2022/04/26 17:13:42;;;;;;;21.67;10.52;;;;;;;24.57;36.18;100057.66;20398510;28;98330;-76
2022/04/26 17:23:42;;;;;;;14.35;7.70;;;;;;;24.58;36.72;100061.13;20405030;28;98507;-75
2022/04/26 17:33:44;;;;;;;19.92;6.82;;;;;;;24.54;35.87;100063.25;20419288;28;98082;-76
2022/04/26 17:43:45;;;;;;;14.43;4.63;;;;;;;24.48;36.33;100069.13;20413123;28;98887;-75
2022/04/26 18:04:06;;;;;;;5.25;3.75;;;;;;;24.30;36.08;100080.50;20428818;28;101535;-73
2022/04/26 18:14:07;;;;;;;5.03;3.60;;;;;;;24.19;36.61;100101.03;20409462;28;97030;-74
2022/04/26 18:24:08;;;;;;;2.97;2.53;;;;;;;24.29;35.19;100091.22;20387243;28;98986;-78
2022/04/26 18:34:08;;;;;;;4.53;2.90;;;;;;;23.89;34.12;100116.13;20383698;28;100281;-78
2022/04/26 18:44:11;;;;;;;5.60;2.67;;;;;;;24.11;34.45;100110.53;20372914;28;102030;-76
2022/04/26 18:54:11;;;;;;;5.13;2.70;;;;;;;24.16;35.77;100128.59;20386795;28;97635;-77
2022/04/26 19:04:13;;;;;;;10.18;3.90;;;;;;;24.30;42.06;100127.28;20362243;28;97822;-78
2022/04/26 19:14:14;;;;;;;9.00;4.10;;;;;;;24.38;42.99;100134.53;20302477;28;102372;-78
2022/04/26 19:24:15;;;;;;;8.50;3.93;;;;;;;24.39;43.23;100134.38;20350644;28;99893;-77
2022/04/26 19:34:16;;;;;;;7.55;4.07;;;;;;;24.33;43.97;100136.75;20386643;28;98213;-78
2022/04/26 19:44:17;;;;;;;7.70;3.53;;;;;;;24.41;43.62;100142.16;20427080;28;96981;-82
2022/04/26 19:54:18;;;;;;;7.53;5.30;;;;;;;24.33;43.62;100148.19;20450687;28;98663;-82
2022/04/26 20:04:18;;;;;;;6.93;4.68;;;;;;;24.25;43.81;100154.19;20435702;28;100526;-79
2022/04/26 20:14:19;;;;;;;10.60;4.50;;;;;;;24.24;43.77;100143.75;20432863;28;99740;-78
2022/04/26 20:24:22;;;;;;;11.02;4.20;;;;;;;24.13;43.74;100145.59;20447859;28;100792;-78
2022/04/26 20:34:23;;;;;;;7.45;4.63;;;;;;;24.06;44.05;100148.94;20399173;28;98684;-79
2022/04/26 20:44:24;;;;;;;7.15;4.07;;;;;;;24.04;43.52;100151.75;20358470;28;98288;-79
2022/04/26 20:54:25;;;;;;;7.63;4.20;;;;;;;24.00;43.74;100170.69;20344217;28;100356;-79
2022/04/26 21:04:26;;;;;;;6.95;4.03;;;;;;;24.08;43.60;100178.75;20415329;28;98005;-77
2022/04/26 21:14:27;;;;;;;7.78;3.92;;;;;;;24.06;44.00;100181.53;20422173;28;97304;-77
2022/04/26 21:24:28;;;;;;;8.90;4.10;;;;;;;24.03;43.67;100192.41;20421645;28;96987;-78
2022/04/26 21:34:29;;;;;;;6.47;3.90;;;;;;;23.98;43.76;100186.69;20422550;28;97391;-77
2022/04/26 21:44:29;;;;;;;6.82;4.00;;;;;;;23.92;44.20;100179.31;20431164;28;97638;-78
2022/04/26 21:54:30;;;;;;;6.30;3.85;;;;;;;23.87;44.17;100176.25;20420037;28;97538;-78
2022/04/26 22:04:32;;;;;;;6.90;3.80;;;;;;;23.81;44.16;100178.50;20424132;28;100094;-76
2022/04/26 22:14:32;;;;;;;;;;;;;;;23.79;44.24;100185.72;20435486;28;97304;-77
2022/04/26 22:24:33;;;;;;;4.97;3.40;;;;;;;23.79;44.44;100191.03;20444640;28;97232;-77
2022/04/26 22:34:34;;;;;;;3.78;3.20;;;;;;;23.76;44.37;100207.16;20438750;28;97259;-76
2022/04/26 22:44:37;;;;;;;4.25;3.03;;;;;;;23.73;44.31;100206.59;20448870;28;100871;-77
2022/04/26 22:54:38;;;;;;;4.10;3.30;;;;;;;23.70;44.46;100207.72;20440272;28;98044;-77
2022/04/26 23:04:39;;;;;;;8.52;3.72;;;;;;;23.67;44.54;100208.84;20450981;28;98447;-77
2022/04/26 23:14:40;;;;;;;4.32;3.30;;;;;;;23.65;44.70;100210.78;20425406;28;97849;-77
2022/04/26 23:24:40;;;;;;;5.55;3.38;;;;;;;23.64;44.73;100208.28;20439070;28;97579;-77
2022/04/26 23:45:01;;;;;;;3.47;2.85;;;;;;;23.71;44.57;100213.84;20420227;28;97565;-77
2022/04/26 23:55:02;;;;;;;4.13;2.90;;;;;;;23.63;44.66;100211.88;20435717;28;98535;-77
